Time;durP1;ratioP1;P1;durP2;ratioP2;P2;SDS_P1;SDS_P2;PMS_P1;PMS_P2;Temp;Humidity;BMP_temperature;BMP_pressure;BME280_temperature;BME280_humidity;BME280_pressure;Samples;Min_cycle;Max_cycle;Signal;HPM_P1;HPM_P2
2021/12/20 00:02:22;;;;;;;;;;;8.50;99.90;;;;;;7342666;19;109669;-83
2021/12/20 00:04:52;;;;;;;;;;;8.40;99.90;;;;;;7350033;19;112307;-83
2021/12/20 00:07:19;;;;;;;;;;;8.40;99.90;;;;;;7345131;19;109779;-84
2021/12/20 00:09:46;;;;;;;;;;;8.50;99.90;;;;;;7343250;19;111848;-83
2021/12/20 00:12:13;;;;;;;;;;;8.40;99.90;;;;;;7344411;19;109285;-83
2021/12/20 00:14:40;;;;;;;;;;;8.50;99.90;;;;;;7344725;19;110318;-83
2021/12/20 00:17:07;;;;;;;;;;;8.50;99.90;;;;;;7342380;19;111888;-83
2021/12/20 00:19:34;;;;;;;;;;;8.40;99.90;;;;;;7343986;19;109819;-85
2021/12/20 00:22:00;;;;;;;;;;;8.40;99.90;;;;;;7341535;19;111480;-84
2021/12/20 00:24:27;;;;;;;;;;;8.40;99.90;;;;;;7343480;19;112657;-85
2021/12/20 00:26:54;;;;;;;;;;;8.40;99.90;;;;;;7351365;19;109400;-83
2021/12/20 00:29:21;;;;;;;;;;;8.40;99.90;;;;;;7351401;19;115796;-83
2021/12/20 00:31:48;;;;;;;;;;;8.40;99.90;;;;;;7351418;19;109710;-83
2021/12/20 00:34:15;;;;;;;;;;;8.40;99.90;;;;;;7349983;19;109185;-83
2021/12/20 00:36:42;;;;;;;;;;;8.50;99.90;;;;;;7349267;19;112829;-83
2021/12/20 00:41:54;;;;;;;;;;;8.50;99.90;;;;;;7352572;19;111136;-83
2021/12/20 00:44:21;;;;;;;;;;;8.40;99.90;;;;;;7348771;19;111910;-84
2021/12/20 00:46:53;;;;;;;;;;;8.40;99.90;;;;;;7349797;19;109526;-83
2021/12/20 00:49:20;;;;;;;;;;;8.40;99.90;;;;;;7354976;19;112257;-84
2021/12/20 00:51:47;;;;;;;;;;;8.50;99.90;;;;;;7348828;19;109427;-84
2021/12/20 00:54:14;;;;;;;;;;;8.40;99.90;;;;;;7351515;19;110857;-84
2021/12/20 00:56:41;;;;;;;;;;;8.40;99.90;;;;;;7347860;19;112130;-84
2021/12/20 00:59:08;;;;;;;;;;;8.40;99.90;;;;;;7349020;19;109523;-84
2021/12/20 01:01:34;;;;;;;;;;;8.40;99.90;;;;;;7349992;19;110776;-82
2021/12/20 01:04:02;;;;;;;;;;;8.40;99.90;;;;;;7350679;19;111702;-85
2021/12/20 01:06:29;;;;;;;;;;;8.50;99.90;;;;;;7350173;19;109354;-83
2021/12/20 01:08:56;;;;;;;;;;;8.40;99.90;;;;;;7350625;19;111011;-84
2021/12/20 01:11:26;;;;;;;;;;;8.50;99.90;;;;;;7353380;19;111847;-84
2021/12/20 01:13:54;;;;;;;;;;;8.50;99.90;;;;;;7348202;19;111084;-85
2021/12/20 01:16:30;;;;;;;;;;;8.50;99.90;;;;;;7350068;19;113975;-82
2021/12/20 01:18:58;;;;;;;;;;;8.50;99.90;;;;;;7349608;19;109264;-85
2021/12/20 01:21:26;;;;;;;;;;;8.50;99.90;;;;;;7349230;19;111472;-83
2021/12/20 01:23:53;;;;;;;;;;;8.50;99.90;;;;;;7349898;19;112443;-84
2021/12/20 01:26:20;;;;;;;;;;;8.50;99.90;;;;;;7351022;19;109759;-83
2021/12/20 01:28:46;;;;;;;;;;;8.40;99.90;;;;;;7348109;19;110575;-85
2021/12/20 01:31:13;;;;;;;;;;;8.40;99.90;;;;;;7347973;19;110480;-85
2021/12/20 01:33:40;;;;;;;;;;;8.40;99.90;;;;;;7353959;19;109401;-83
2021/12/20 01:36:07;;;;;;;;;;;8.40;99.90;;;;;;7347010;19;113735;-83
2021/12/20 01:38:34;;;;;;;;;;;8.40;99.90;;;;;;7349465;19;109775;-83
2021/12/20 01:41:01;;;;;;;;;;;8.40;99.90;;;;;;7349400;19;110872;-85
2021/12/20 01:43:28;;;;;;;;;;;8.40;99.90;;;;;;7349104;19;111531;-83
2021/12/20 01:45:55;;;;;;;;;;;8.40;99.90;;;;;;7347683;19;109338;-84
2021/12/20 01:48:23;;;;;;;;;;;8.30;99.90;;;;;;7349093;19;111098;-84
2021/12/20 01:51:16;;;;;;;;;;;8.30;99.90;;;;;;7348051;19;110398;-83
2021/12/20 01:53:38;;;;;;;;;;;8.30;99.90;;;;;;7348669;19;109465;-83
2021/12/20 01:56:05;;;;;;;;;;;8.30;99.90;;;;;;7354285;19;109912;-85
2021/12/20 01:58:33;;;;;;;;;;;8.30;99.90;;;;;;7346436;19;109376;-84
2021/12/20 02:03:36;;;;;;;;;;;8.30;99.90;;;;;;7348114;19;112006;-84
2021/12/20 02:06:06;;;;;;;;;;;8.30;99.90;;;;;;7347547;19;109395;-84
2021/12/20 02:08:33;;;;;;;;;;;8.30;99.90;;;;;;7347458;19;112103;-83
2021/12/20 02:11:03;;;;;;;;;;;8.30;99.90;;;;;;7346624;19;112624;-83
2021/12/20 02:13:30;;;;;;;;;;;8.30;99.90;;;;;;7348454;19;109341;-83
2021/12/20 02:15:59;;;;;;;;;;;8.30;99.90;;;;;;7351471;19;109135;-83
2021/12/20 02:18:26;;;;;;;;;;;8.30;99.90;;;;;;7349110;19;109325;-83
2021/12/20 02:20:53;;;;;;;;;;;8.30;99.90;;;;;;7345824;19;111283;-83
2021/12/20 02:23:20;;;;;;;;;;;8.30;99.90;;;;;;7346643;19;112153;-82
2021/12/20 02:25:47;;;;;;;;;;;8.30;99.90;;;;;;7348870;19;109807;-83
2021/12/20 02:28:15;;;;;;;;;;;8.30;99.90;;;;;;7346034;19;111417;-85
2021/12/20 02:38:46;;;;;;;;;;;8.20;99.90;;;;;;7354097;19;112119;-85
2021/12/20 02:41:15;;;;;;;;;;;8.20;99.90;;;;;;7348143;19;114275;-85
2021/12/20 02:43:54;;;;;;;;;;;8.10;99.90;;;;;;7348206;19;112158;-83
2021/12/20 02:47:06;;;;;;;;;;;8.10;99.90;;;;;;7347841;19;109700;-83
2021/12/20 02:49:12;;;;;;;;;;;8.00;99.90;;;;;;7343994;19;111082;-83
2021/12/20 02:51:39;;;;;;;;;;;8.10;99.90;;;;;;7345736;19;111983;-83
2021/12/20 02:54:08;;;;;;;;;;;8.10;99.90;;;;;;7346114;19;109730;-83
2021/12/20 02:56:35;;;;;;;;;;;8.10;99.90;;;;;;7346332;19;110992;-83
2021/12/20 02:59:02;;;;;;;;;;;8.10;99.90;;;;;;7344971;19;111828;-83
2021/12/20 03:01:29;;;;;;;;;;;7.90;99.90;;;;;;7353836;19;109910;-83
2021/12/20 03:03:57;;;;;;;;;;;7.90;99.90;;;;;;7345486;19;112101;-83
2021/12/20 03:06:34;;;;;;;;;;;7.90;99.90;;;;;;7348007;19;109528;-83
2021/12/20 03:09:03;;;;;;;;;;;7.80;99.90;;;;;;7347638;19;111031;-83
2021/12/20 03:11:30;;;;;;;;;;;7.80;99.90;;;;;;7345176;19;112153;-84
2021/12/20 03:14:10;;;;;;;;;;;7.80;99.90;;;;;;7347610;19;109368;-83
2021/12/20 03:16:36;;;;;;;;;;;7.70;99.90;;;;;;7347156;19;111100;-83
2021/12/20 03:19:04;;;;;;;;;;;7.70;99.90;;;;;;7347516;19;112336;-83
2021/12/20 03:21:31;;;;;;;;;;;7.70;99.90;;;;;;7344164;19;110367;-84
2021/12/20 03:23:58;;;;;;;;;;;7.70;99.90;;;;;;7351422;19;111101;-83
2021/12/20 03:26:25;;;;;;;;;;;7.80;99.90;;;;;;7346497;19;109297;-83
2021/12/20 03:28:52;;;;;;;;;;;7.80;99.90;;;;;;7347387;19;110849;-83
2021/12/20 03:31:19;;;;;;;;;;;7.80;99.90;;;;;;7344959;19;111933;-84
2021/12/20 03:33:46;;;;;;;;;;;7.80;99.90;;;;;;7345167;19;109601;-83
2021/12/20 03:36:13;;;;;;;;;;;7.80;99.90;;;;;;7346643;19;111415;-83
2021/12/20 03:38:40;;;;;;;;;;;7.80;99.90;;;;;;7345333;19;114794;-83
2021/12/20 03:41:07;;;;;;;;;;;7.80;99.90;;;;;;7347493;19;109407;-83
2021/12/20 03:43:34;;;;;;;;;;;7.80;99.90;;;;;;7344918;19;110726;-83
2021/12/20 03:46:05;;;;;;;;;;;7.90;99.90;;;;;;7350910;19;112084;-83
2021/12/20 03:48:33;;;;;;;;;;;7.90;99.90;;;;;;7345494;19;110336;-83
2021/12/20 03:51:01;;;;;;;;;;;8.00;99.90;;;;;;7344299;19;113861;-83
2021/12/20 03:53:33;;;;;;;;;;;8.00;99.90;;;;;;7341187;19;120786;-83
2021/12/20 03:56:01;;;;;;;;;;;7.90;99.90;;;;;;7346055;19;110974;-83
2021/12/20 03:58:28;;;;;;;;;;;8.00;99.90;;;;;;7345373;19;112067;-83
2021/12/20 04:01:00;;;;;;;;;;;7.90;99.90;;;;;;7345337;19;111189;-83
2021/12/20 04:03:30;;;;;;;;;;;8.00;99.90;;;;;;7346237;19;111301;-83
2021/12/20 04:05:57;;;;;;;;;;;8.00;99.90;;;;;;7344787;19;112428;-84
2021/12/20 04:08:24;;;;;;;;;;;8.10;99.90;;;;;;7350616;19;109043;-83
2021/12/20 04:10:51;;;;;;;;;;;8.10;99.90;;;;;;7343100;19;112004;-83
2021/12/20 04:13:19;;;;;;;;;;;8.00;99.90;;;;;;7343517;19;109364;-83
2021/12/20 04:15:46;;;;;;;;;;;8.00;99.90;;;;;;7343896;19;110625;-84
2021/12/20 04:18:13;;;;;;;;;;;8.00;99.90;;;;;;7344139;19;111922;-83
2021/12/20 04:20:40;;;;;;;;;;;8.00;99.90;;;;;;7345775;19;109353;-84
2021/12/20 04:23:07;;;;;;;;;;;8.00;99.90;;;;;;7342966;19;113788;-84
2021/12/20 04:25:34;;;;;;;;;;;8.00;99.90;;;;;;7343714;19;112312;-84
2021/12/20 04:28:01;;;;;;;;;;;8.00;99.90;;;;;;7349325;19;109587;-84
2021/12/20 04:30:30;;;;;;;;;;;8.00;99.90;;;;;;7344947;19;113473;-83
2021/12/20 04:32:57;;;;;;;;;;;8.10;99.90;;;;;;7341623;19;109889;-83
2021/12/20 04:35:24;;;;;;;;;;;8.00;99.90;;;;;;7344829;19;111013;-84
2021/12/20 04:37:52;;;;;;;;;;;8.00;99.90;;;;;;7344223;19;110400;-84
2021/12/20 04:40:21;;;;;;;;;;;7.90;99.90;;;;;;7343905;19;109252;-83
2021/12/20 04:42:50;;;;;;;;;;;7.90;99.90;;;;;;7343867;19;110609;-83
2021/12/20 04:45:17;;;;;;;;;;;7.90;99.90;;;;;;7343417;19;111607;-84
2021/12/20 04:47:44;;;;;;;;;;;7.90;99.90;;;;;;7344793;19;109489;-83
2021/12/20 04:50:12;;;;;;;;;;;7.90;99.90;;;;;;7348550;19;111236;-84
2021/12/20 04:52:40;;;;;;;;;;;8.00;99.90;;;;;;7342387;19;109537;-83
2021/12/20 04:55:07;;;;;;;;;;;8.00;99.90;;;;;;7342226;19;110952;-83
2021/12/20 04:57:34;;;;;;;;;;;8.00;99.90;;;;;;7343362;19;112032;-83
2021/12/20 05:00:02;;;;;;;;;;;8.00;99.90;;;;;;7342899;19;109222;-84
2021/12/20 05:02:29;;;;;;;;;;;8.00;99.90;;;;;;7343578;19;110982;-84
2021/12/20 05:04:56;;;;;;;;;;;8.00;99.90;;;;;;7343915;19;111654;-83
2021/12/20 05:07:26;;;;;;;;;;;8.00;99.90;;;;;;7342999;19;109888;-83
2021/12/20 05:09:58;;;;;;;;;;;7.90;99.90;;;;;;7345708;19;111674;-83
2021/12/20 05:12:25;;;;;;;;;;;7.90;99.90;;;;;;7347217;19;112168;-84
2021/12/20 05:14:52;;;;;;;;;;;7.90;99.90;;;;;;7351378;19;111044;-83
2021/12/20 05:17:18;;;;;;;;;;;7.80;99.90;;;;;;7350631;19;111677;-83
2021/12/20 05:19:45;;;;;;;;;;;7.90;99.90;;;;;;7350189;19;109399;-83
2021/12/20 05:22:12;;;;;;;;;;;7.90;99.90;;;;;;7350740;19;110654;-83
2021/12/20 05:24:39;;;;;;;;;;;7.80;99.90;;;;;;7348867;19;112737;-83
2021/12/20 05:27:06;;;;;;;;;;;7.80;99.90;;;;;;7351001;19;109361;-84
2021/12/20 05:29:33;;;;;;;;;;;7.80;99.90;;;;;;7347925;19;110942;-83
2021/12/20 05:32:03;;;;;;;;;;;7.80;99.90;;;;;;7348409;19;112840;-83
2021/12/20 05:34:30;;;;;;;;;;;7.80;99.90;;;;;;7352842;19;109898;-84
2021/12/20 05:36:57;;;;;;;;;;;7.80;99.90;;;;;;7347934;19;112091;-84
2021/12/20 05:39:24;;;;;;;;;;;7.80;99.90;;;;;;7349196;19;110317;-85
2021/12/20 05:41:50;;;;;;;;;;;7.80;99.90;;;;;;7349477;19;110985;-85
2021/12/20 05:44:17;;;;;;;;;;;7.80;99.90;;;;;;7347039;19;112430;-84
2021/12/20 05:46:44;;;;;;;;;;;7.80;99.90;;;;;;7348988;19;109307;-84
2021/12/20 05:49:11;;;;;;;;;;;7.80;99.90;;;;;;7349455;19;111114;-83
2021/12/20 05:51:38;;;;;;;;;;;7.80;99.90;;;;;;7346511;19;112476;-83
2021/12/20 05:54:05;;;;;;;;;;;7.80;99.90;;;;;;7349542;19;109358;-85
2021/12/20 05:56:32;;;;;;;;;;;7.70;99.90;;;;;;7352937;19;111209;-83
2021/12/20 05:58:59;;;;;;;;;;;7.70;99.90;;;;;;7348264;19;109424;-84
2021/12/20 06:01:26;;;;;;;;;;;7.50;99.90;;;;;;7346854;19;110701;-85
2021/12/20 06:03:53;;;;;;;;;;;7.50;99.90;;;;;;7348161;19;112043;-84
2021/12/20 06:06:20;;;;;;;;;;;7.40;99.90;;;;;;7349580;19;110225;-84
2021/12/20 06:08:47;;;;;;;;;;;7.40;99.90;;;;;;7348520;19;111158;-85
2021/12/20 06:11:14;;;;;;;;;;;7.40;99.90;;;;;;7348153;19;111999;-85
2021/12/20 06:13:40;;;;;;;;;;;7.40;99.90;;;;;;7343682;19;109457;-85
2021/12/20 06:16:07;;;;;;;;;;;7.40;99.90;;;;;;7353775;19;110972;-84
2021/12/20 06:18:34;;;;;;;;;;;7.50;99.90;;;;;;7346758;19;109843;-85
2021/12/20 06:21:01;;;;;;;;;;;7.50;99.90;;;;;;7347761;19;110928;-84
2021/12/20 06:23:28;;;;;;;;;;;7.50;99.90;;;;;;7345956;19;112044;-84
2021/12/20 06:25:55;;;;;;;;;;;7.60;99.90;;;;;;7345312;19;109710;-84
2021/12/20 06:28:22;;;;;;;;;;;7.50;99.90;;;;;;7344281;19;111123;-85
2021/12/20 06:30:48;;;;;;;;;;;7.60;99.90;;;;;;7344401;19;113510;-86
2021/12/20 06:33:15;;;;;;;;;;;7.60;99.90;;;;;;7345905;19;109385;-84
2021/12/20 06:35:42;;;;;;;;;;;7.60;99.90;;;;;;7346678;19;110976;-86
2021/12/20 06:38:12;;;;;;;;;;;7.60;99.90;;;;;;7351159;19;112129;-84
2021/12/20 06:40:38;;;;;;;;;;;7.60;99.90;;;;;;7343997;19;112106;-86
2021/12/20 06:43:05;;;;;;;;;;;7.60;99.90;;;;;;7344366;19;115447;-86
2021/12/20 06:45:33;;;;;;;;;;;7.60;99.90;;;;;;7346168;19;110264;-84
2021/12/20 06:48:00;;;;;;;;;;;7.60;99.90;;;;;;7346546;19;110849;-82
2021/12/20 06:50:27;;;;;;;;;;;7.60;99.90;;;;;;7345288;19;111848;-83
2021/12/20 06:52:54;;;;;;;;;;;7.60;99.90;;;;;;7345774;19;109967;-83
2021/12/20 06:55:21;;;;;;;;;;;7.60;99.90;;;;;;7348236;19;110882;-84
2021/12/20 06:57:48;;;;;;;;;;;7.50;99.90;;;;;;7346084;19;113591;-84
2021/12/20 07:00:15;;;;;;;;;;;7.50;99.90;;;;;;7354077;19;109423;-84
2021/12/20 07:02:42;;;;;;;;;;;7.50;99.90;;;;;;7347446;19;112105;-84
2021/12/20 07:05:09;;;;;;;;;;;7.60;99.90;;;;;;7348662;19;109412;-85
2021/12/20 07:07:36;;;;;;;;;;;7.60;99.90;;;;;;7346907;19;110957;-84
2021/12/20 07:10:03;;;;;;;;;;;7.60;99.90;;;;;;7344531;19;112082;-85
2021/12/20 07:12:32;;;;;;;;;;;7.70;99.90;;;;;;7345604;19;109983;-84
2021/12/20 07:14:59;;;;;;;;;;;7.60;99.90;;;;;;7346608;19;110982;-83
2021/12/20 07:17:26;;;;;;;;;;;7.60;99.90;;;;;;7345748;19;110212;-85
2021/12/20 07:19:53;;;;;;;;;;;7.60;99.90;;;;;;7345288;19;109377;-84
2021/12/20 07:22:20;;;;;;;;;;;7.60;99.90;;;;;;7352770;19;113697;-84
2021/12/20 07:24:47;;;;;;;;;;;7.60;99.90;;;;;;7347445;19;110033;-85
2021/12/20 07:27:13;;;;;;;;;;;7.60;99.90;;;;;;7344734;19;111237;-85
2021/12/20 07:29:41;;;;;;;;;;;7.70;99.90;;;;;;7344641;19;112297;-84
2021/12/20 07:32:08;;;;;;;;;;;7.60;99.90;;;;;;7348395;19;109887;-85
2021/12/20 07:34:35;;;;;;;;;;;7.70;99.90;;;;;;7345658;19;110980;-85
2021/12/20 07:37:02;;;;;;;;;;;7.60;99.90;;;;;;7343554;19;112228;-85
2021/12/20 07:39:29;;;;;;;;;;;7.70;99.90;;;;;;7345897;19;109216;-85
2021/12/20 07:41:56;;;;;;;;;;;7.70;99.90;;;;;;7345738;19;111421;-85
2021/12/20 07:44:23;;;;;;;;;;;7.70;99.90;;;;;;7353373;19;112191;-84
2021/12/20 07:46:49;;;;;;;;;;;7.60;99.90;;;;;;7345662;19;111479;-85
2021/12/20 07:49:17;;;;;;;;;;;7.60;99.90;;;;;;7347393;19;111714;-86
2021/12/20 07:51:44;;;;;;;;;;;7.60;99.90;;;;;;7346269;19;109385;-85
2021/12/20 07:54:12;;;;;;;;;;;7.60;99.90;;;;;;7344015;19;110954;-84
2021/12/20 07:56:39;;;;;;;;;;;7.50;99.90;;;;;;7345011;19;112135;-85
2021/12/20 07:59:07;;;;;;;;;;;7.60;99.90;;;;;;7344991;19;109410;-84
2021/12/20 08:01:34;;;;;;;;;;;7.60;99.90;;;;;;7347264;19;110979;-85
2021/12/20 08:04:02;;;;;;;;;;;7.60;99.90;;;;;;7344138;19;112100;-84
2021/12/20 08:06:29;;;;;;;;;;;7.60;99.90;;;;;;7351952;19;109881;-86
2021/12/20 08:08:56;;;;;;;;;;;7.60;99.90;;;;;;7342794;19;112061;-85
2021/12/20 08:11:23;;;;;;;;;;;7.60;99.90;;;;;;7344818;19;109552;-84
2021/12/20 08:13:50;;;;;;;;;;;7.60;99.90;;;;;;7343531;19;110920;-85
2021/12/20 08:16:19;;;;;;;;;;;7.60;99.90;;;;;;7346503;19;113593;-85
2021/12/20 08:18:47;;;;;;;;;;;7.60;99.90;;;;;;7345677;19;109464;-84
2021/12/20 08:21:15;;;;;;;;;;;7.60;99.90;;;;;;7345586;19;110569;-85
2021/12/20 08:23:43;;;;;;;;;;;7.60;99.90;;;;;;7343202;19;112306;-85
2021/12/20 08:26:11;;;;;;;;;;;7.60;99.90;;;;;;7350088;19;109346;-85
2021/12/20 08:28:38;;;;;;;;;;;7.60;99.90;;;;;;7338992;19;112971;-85
2021/12/20 08:31:05;;;;;;;;;;;7.50;99.90;;;;;;7344904;19;109971;-84
2021/12/20 08:33:32;;;;;;;;;;;7.60;99.90;;;;;;7341856;19;110732;-84
2021/12/20 08:36:00;;;;;;;;;;;7.60;99.90;;;;;;7344394;19;114518;-84
2021/12/20 08:38:28;;;;;;;;;;;7.60;99.90;;;;;;7344539;19;109446;-85
2021/12/20 08:40:59;;;;;;;;;;;7.60;99.90;;;;;;7344348;19;114187;-85
2021/12/20 08:43:27;;;;;;;;;;;7.70;99.90;;;;;;7344312;19;112056;-85
2021/12/20 08:45:54;;;;;;;;;;;7.60;99.90;;;;;;7342524;19;109382;-85
2021/12/20 08:48:21;;;;;;;;;;;7.70;99.90;;;;;;7351871;19;111145;-85
2021/12/20 08:50:48;;;;;;;;;;;7.70;99.90;;;;;;7351402;19;109292;-85
2021/12/20 08:53:15;;;;;;;;;;;7.70;99.90;;;;;;7349325;19;111131;-85
2021/12/20 08:55:42;;;;;;;;;;;7.70;99.90;;;;;;7350517;19;110459;-86
2021/12/20 08:58:09;;;;;;;;;;;7.70;99.90;;;;;;7349667;19;109310;-85
2021/12/20 09:00:36;;;;;;;;;;;7.70;99.90;;;;;;7349901;19;111040;-86
2021/12/20 09:03:04;;;;;;;;;;;7.60;99.90;;;;;;7350116;19;113673;-86
2021/12/20 09:05:32;;;;;;;;;;;7.60;99.90;;;;;;7349903;19;109330;-85
2021/12/20 09:08:01;;;;;;;;;;;7.60;99.90;;;;;;7351406;19;110869;-85
2021/12/20 09:10:29;;;;;;;;;;;7.60;99.90;;;;;;7356881;19;111022;-85
2021/12/20 09:12:56;;;;;;;;;;;7.60;99.90;;;;;;7350186;19;114654;-86
2021/12/20 09:15:28;;;;;;;;;;;7.50;99.90;;;;;;7350292;19;111846;-85
2021/12/20 09:17:55;;;;;;;;;;;7.50;99.90;;;;;;7348581;19;109715;-85
2021/12/20 09:20:23;;;;;;;;;;;7.50;99.90;;;;;;7349470;19;110106;-85
2021/12/20 09:22:52;;;;;;;;;;;7.50;99.90;;;;;;7350779;19;111904;-85
2021/12/20 09:25:20;;;;;;;;;;;7.50;99.90;;;;;;7351448;19;109312;-86
2021/12/20 09:27:47;;;;;;;;;;;7.50;99.90;;;;;;7350965;19;111485;-85
2021/12/20 09:30:15;;;;;;;;;;;7.50;99.90;;;;;;7350896;19;111786;-86
2021/12/20 09:32:43;;;;;;;;;;;7.50;99.90;;;;;;7354228;19;109351;-85
2021/12/20 09:35:10;;;;;;;;;;;7.50;99.90;;;;;;7349618;19;111198;-85
2021/12/20 09:37:38;;;;;;;;;;;7.50;99.90;;;;;;7350316;19;109358;-85
2021/12/20 09:40:07;;;;;;;;;;;7.60;99.90;;;;;;7348349;19;109204;-86
2021/12/20 09:42:34;;;;;;;;;;;7.60;99.90;;;;;;7349282;19;111757;-85
2021/12/20 09:45:02;;;;;;;;;;;7.70;99.90;;;;;;7350421;19;109340;-86
2021/12/20 09:47:31;;;;;;;;;;;7.70;99.90;;;;;;7348714;19;110696;-85
2021/12/20 09:50:00;;;;;;;;;;;7.70;99.90;;;;;;7349606;19;112035;-85
2021/12/20 09:52:27;;;;;;;;;;;7.80;99.90;;;;;;7351290;19;109278;-85
2021/12/20 09:54:54;;;;;;;;;;;7.80;99.90;;;;;;7351568;19;111694;-85
2021/12/20 09:57:21;;;;;;;;;;;7.80;99.90;;;;;;7348807;19;109416;-85
2021/12/20 09:59:50;;;;;;;;;;;7.70;99.90;;;;;;7351397;19;111488;-85
2021/12/20 10:02:20;;;;;;;;;;;7.70;99.90;;;;;;7349881;19;111767;-85
2021/12/20 10:04:47;;;;;;;;;;;7.80;99.90;;;;;;7349258;19;109355;-86
2021/12/20 10:07:20;;;;;;;;;;;7.80;99.90;;;;;;7347040;19;110997;-85
2021/12/20 10:09:48;;;;;;;;;;;7.80;99.90;;;;;;7346566;19;111752;-85
2021/12/20 10:12:17;;;;;;;;;;;7.80;99.90;;;;;;7345695;19;109450;-85
2021/12/20 10:15:03;;;;;;;;;;;7.90;99.90;;;;;;7344217;19;110694;-85
2021/12/20 10:17:32;;;;;;;;;;;7.90;99.90;;;;;;7353407;19;114559;-85
2021/12/20 10:20:13;;;;;;;;;;;7.80;99.90;;;;;;7349031;19;110941;-85
2021/12/20 10:22:40;;;;;;;;;;;7.90;99.90;;;;;;7344165;19;111988;-85
2021/12/20 10:25:21;;;;;;;;;;;7.90;99.90;;;;;;7347939;19;109657;-85
2021/12/20 10:27:48;;;;;;;;;;;7.90;99.90;;;;;;7345673;19;109124;-85
2021/12/20 10:30:34;;;;;;;;;;;7.80;99.90;;;;;;7345934;19;112344;-84
2021/12/20 10:33:16;;;;;;;;;;;7.80;99.90;;;;;;7340290;19;109665;-85
2021/12/20 10:35:43;;;;;;;;;;;7.80;99.90;;;;;;7344485;19;111165;-85
2021/12/20 10:38:27;;;;;;;;;;;7.90;99.90;;;;;;7349076;19;111363;-85
2021/12/20 10:40:57;;;;;;;;;;;7.90;99.90;;;;;;7343251;19;114791;-85
2021/12/20 10:43:26;;;;;;;;;;;8.00;99.90;;;;;;7341957;19;110175;-85
2021/12/20 10:45:54;;;;;;;;;;;8.00;99.90;;;;;;7344204;19;109501;-85
2021/12/20 10:48:42;;;;;;;;;;;8.10;99.90;;;;;;7344156;19;110711;-85
2021/12/20 10:51:17;;;;;;;;;;;8.10;99.90;;;;;;7342994;19;114014;-85
2021/12/20 10:53:46;;;;;;;;;;;8.10;99.90;;;;;;7342858;19;109684;-84
2021/12/20 10:56:13;;;;;;;;;;;8.20;99.90;;;;;;7344235;19;111618;-84
2021/12/20 10:58:52;;;;;;;;;;;8.20;99.90;;;;;;7342299;19;113368;-85
2021/12/20 11:03:58;;;;;;;;;;;8.10;99.90;;;;;;7344737;19;113000;-85
2021/12/20 11:06:38;;;;;;;;;;;8.10;99.90;;;;;;7347070;19;109312;-84
2021/12/20 11:09:13;;;;;;;;;;;8.20;99.90;;;;;;7347988;19;110914;-85
2021/12/20 11:11:43;;;;;;;;;;;8.20;99.90;;;;;;7343807;19;111601;-85
2021/12/20 11:14:11;;;;;;;;;;;8.30;99.90;;;;;;7343129;19;110735;-85
2021/12/20 11:16:39;;;;;;;;;;;8.20;99.90;;;;;;7344885;19;110657;-85
2021/12/20 11:19:06;;;;;;;;;;;8.20;99.90;;;;;;7345378;19;111978;-85
2021/12/20 11:21:38;;;;;;;;;;;8.30;99.90;;;;;;7344527;19;109773;-85
2021/12/20 11:24:11;;;;;;;;;;;8.20;99.90;;;;;;7349404;19;110963;-85
2021/12/20 11:26:39;;;;;;;;;;;8.20;99.90;;;;;;7347711;19;109326;-85
2021/12/20 11:29:06;;;;;;;;;;;8.10;99.90;;;;;;7344021;19;111749;-86
2021/12/20 11:31:33;;;;;;;;;;;8.20;99.90;;;;;;7345377;19;115172;-85
2021/12/20 11:34:01;;;;;;;;;;;8.20;99.90;;;;;;7344403;19;109393;-83
2021/12/20 11:36:28;;;;;;;;;;;8.20;99.90;;;;;;7347348;19;109609;-84
2021/12/20 11:38:58;;;;;;;;;;;8.30;99.90;;;;;;7346921;19;112394;-83
2021/12/20 11:41:29;;;;;;;;;;;8.30;99.90;;;;;;7346426;19;110066;-83
2021/12/20 11:43:56;;;;;;;;;;;8.20;99.70;;;;;;7344847;19;109513;-83
2021/12/20 11:46:25;;;;;;;;;;;8.20;99.90;;;;;;7349446;19;112003;-83
2021/12/20 11:48:52;;;;;;;;;;;8.30;99.90;;;;;;7347194;19;110778;-83
2021/12/20 11:51:19;;;;;;;;;;;8.30;99.90;;;;;;7345315;19;111963;-83
2021/12/20 11:53:45;;;;;;;;;;;8.30;99.90;;;;;;7346100;19;109373;-83
2021/12/20 11:56:13;;;;;;;;;;;8.40;99.90;;;;;;7345149;19;111558;-83
2021/12/20 11:58:49;;;;;;;;;;;8.40;99.90;;;;;;7345707;19;111022;-83
2021/12/20 12:01:18;;;;;;;;;;;8.40;99.90;;;;;;7345501;19;109944;-83
2021/12/20 12:03:53;;;;;;;;;;;8.30;99.90;;;;;;7346772;19;110962;-83
2021/12/20 12:06:25;;;;;;;;;;;8.30;99.90;;;;;;7344362;19;112826;-83
2021/12/20 12:08:58;;;;;;;;;;;8.30;99.90;;;;;;7350812;19;109365;-83
2021/12/20 12:11:41;;;;;;;;;;;8.20;99.90;;;;;;7347132;19;110298;-83
2021/12/20 12:14:18;;;;;;;;;;;8.20;99.90;;;;;;7340647;19;109848;-84
2021/12/20 12:16:54;;;;;;;;;;;8.20;99.90;;;;;;7345707;19;111987;-84
2021/12/20 12:19:40;;;;;;;;;;;8.30;99.90;;;;;;7346089;19;111860;-83
2021/12/20 12:22:26;;;;;;;;;;;8.30;99.90;;;;;;7344556;19;109903;-83
2021/12/20 12:24:56;;;;;;;;;;;8.20;99.90;;;;;;7343657;19;111738;-83
2021/12/20 12:27:24;;;;;;;;;;;8.20;99.90;;;;;;7343333;19;111416;-83
2021/12/20 12:30:28;;;;;;;;;;;8.20;99.90;;;;;;7342020;19;109798;-83
2021/12/20 12:32:56;;;;;;;;;;;8.30;99.90;;;;;;7345381;19;111119;-84
2021/12/20 12:35:39;;;;;;;;;;;8.20;99.90;;;;;;7342360;19;111108;-83
2021/12/20 12:38:19;;;;;;;;;;;8.20;99.90;;;;;;7341670;19;110859;-83
2021/12/20 12:40:51;;;;;;;;;;;8.30;99.90;;;;;;7341479;19;110330;-83
2021/12/20 12:43:44;;;;;;;;;;;8.30;99.90;;;;;;7345461;19;109271;-84
2021/12/20 12:50:16;;;;;;;;;;;8.30;99.90;;;;;;7340645;19;110451;-83
2021/12/20 12:52:59;;;;;;;;;;;8.30;99.90;;;;;;7336743;19;109441;-83
2021/12/20 12:55:27;;;;;;;;;;;8.30;99.90;;;;;;7344525;19;114502;-83
2021/12/20 12:57:55;;;;;;;;;;;8.30;98.70;;;;;;7343840;19;109291;-83
2021/12/20 13:00:24;;;;;;;;;;;8.20;98.30;;;;;;7342083;19;111321;-83
2021/12/20 13:02:54;;;;;;;;;;;8.30;99.90;;;;;;7342979;19;111645;-83
2021/12/20 13:05:22;;;;;;;;;;;8.30;99.90;;;;;;7344503;19;109407;-83
2021/12/20 13:07:51;;;;;;;;;;;8.40;99.90;;;;;;7342184;19;113534;-83
2021/12/20 13:10:19;;;;;;;;;;;8.50;99.90;;;;;;7341994;19;115338;-84
2021/12/20 13:15:26;;;;;;;;;;;8.40;99.50;;;;;;7342442;19;110769;-84
2021/12/20 13:17:55;;;;;;;;;;;8.40;99.60;;;;;;7349203;19;113598;-83
2021/12/20 13:20:37;;;;;;;;;;;8.40;99.90;;;;;;7343576;19;111306;-84
2021/12/20 13:23:06;;;;;;;;;;;8.30;99.10;;;;;;7340307;19;112346;-83
2021/12/20 13:25:41;;;;;;;;;;;8.30;98.90;;;;;;7341651;19;109380;-83
2021/12/20 13:28:16;;;;;;;;;;;8.20;99.60;;;;;;7342770;19;111093;-84
2021/12/20 13:30:45;;;;;;;;;;;8.30;99.70;;;;;;7343099;19;112244;-83
2021/12/20 13:33:12;;;;;;;;;;;8.30;99.90;;;;;;7340498;19;109634;-84
2021/12/20 13:35:40;;;;;;;;;;;8.30;99.90;;;;;;7346985;19;114380;-84
2021/12/20 13:38:12;;;;;;;;;;;8.30;99.90;;;;;;7350059;19;112257;-84
2021/12/20 13:40:52;;;;;;;;;;;8.40;99.90;;;;;;7353487;19;110193;-84
2021/12/20 13:43:25;;;;;;;;;;;8.40;99.60;;;;;;7349451;19;112020;-84
2021/12/20 13:46:12;;;;;;;;;;;8.30;99.90;;;;;;7347433;19;109585;-83
2021/12/20 13:48:47;;;;;;;;;;;8.30;99.90;;;;;;7346926;19;110954;-83
2021/12/20 13:51:14;;;;;;;;;;;8.30;99.90;;;;;;7349766;19;111848;-83
2021/12/20 13:53:41;;;;;;;;;;;8.30;99.70;;;;;;7348299;19;109507;-83
2021/12/20 13:56:08;;;;;;;;;;;8.30;99.90;;;;;;7344982;19;111088;-83
2021/12/20 13:58:35;;;;;;;;;;;8.30;99.90;;;;;;7349457;19;111696;-83
2021/12/20 14:01:02;;;;;;;;;;;8.30;99.90;;;;;;7348313;19;109446;-84
2021/12/20 14:03:29;;;;;;;;;;;8.40;99.90;;;;;;7352783;19;113506;-83
2021/12/20 14:05:56;;;;;;;;;;;8.40;99.60;;;;;;7349080;19;109397;-83
2021/12/20 14:08:24;;;;;;;;;;;8.40;99.70;;;;;;7347803;19;111216;-83
2021/12/20 14:10:51;;;;;;;;;;;8.30;99.90;;;;;;7347584;19;114874;-84
2021/12/20 14:13:19;;;;;;;;;;;8.30;99.90;;;;;;7347534;19;109750;-83
2021/12/20 14:16:06;;;;;;;;;;;8.20;99.00;;;;;;7345092;19;111037;-83
2021/12/20 14:18:38;;;;;;;;;;;8.20;99.40;;;;;;7345402;19;110476;-84
2021/12/20 14:21:06;;;;;;;;;;;8.10;99.10;;;;;;7342380;19;109829;-84
2021/12/20 14:23:37;;;;;;;;;;;8.10;99.90;;;;;;7337089;19;110547;-84
2021/12/20 14:26:06;;;;;;;;;;;8.20;99.90;;;;;;7346731;19;117378;-84
2021/12/20 14:28:36;;;;;;;;;;;8.10;99.90;;;;;;7347988;19;110655;-83
2021/12/20 14:31:08;;;;;;;;;;;8.10;99.90;;;;;;7346970;19;112080;-84
2021/12/20 14:33:55;;;;;;;;;;;8.10;99.90;;;;;;7348775;19;109323;-84
2021/12/20 14:36:24;;;;;;;;;;;8.10;99.90;;;;;;7347169;19;110854;-84
2021/12/20 14:38:50;;;;;;;;;;;8.10;99.90;;;;;;7349303;19;113023;-84
2021/12/20 14:41:20;;;;;;;;;;;8.10;99.90;;;;;;7348763;19;109376;-83
2021/12/20 14:43:48;;;;;;;;;;;8.20;99.90;;;;;;7349323;19;111792;-84
2021/12/20 14:46:22;;;;;;;;;;;8.20;99.90;;;;;;7345615;19;112470;-84
2021/12/20 14:48:54;;;;;;;;;;;8.30;99.90;;;;;;7351889;19;109510;-84
2021/12/20 14:51:25;;;;;;;;;;;8.30;99.90;;;;;;7348292;19;112306;-84